LiveATC.Net - Listen to live air traffic control over the Internet! Contact LiveATC.net for advertising information


ICAO: KPGD  IATA: PGD   Airport: Charlotte County Airport
City: Punta Gorda   State/Province: Florida
Country: United States   Continent: North America
KPGD METAR Weather: KPGD 220853Z AUTO 00000KT 7SM CLR 24/23 A3002 RMK AO2 SLP165 T02390228 58006
KPGD Flight Activity (FlightAware)
KPGD Airport Info   (AirNav) (iFlightPlanner)
KPGD Ground/Tower
Feed Status: DOWN
Last heard on: 2014-07-21 20:48:03 (0 days 12 hours 29 minutes ago)
KPGD Ground/Tower Audio Archives
FacilityFrequency
Punta Gorda Ground119.550
Punta Gorda Tower121.000


NOTICE

Unauthorized use prohibited. See LiveATC.net Terms of Service


Find LiveATC Audio Streams


Airport/ARTCC Code

Frequency
(e.g., 124.400, 128.75)
Site-wide search

Browse LiveATC Feeds
LiveATC Coverage Map
Top 50 LiveATC Feeds
Bad Weather Areas

LiveATC FAQ
Offer a LiveATC Feed
Contact LiveATC.net
Press Inquiries

LiveATC on iPhone
LiveATC on Android

LiveATC Mobile
(Mobile browser)

ATC Audio Archives
Interesting Recordings

LiveATC Forums


Home Page
About LiveATC.net
Make a Donation
LiveATC Bookstore

Terms of Use
Privacy Policy

ATC/Radar Sites
U.S. ARTCC Freqs
Canadian Air Freqs

AIRMETs/SIGMETs

FAA Airport Status
Nat'l Airspace Status
Arrival Demand Charts


Server Software By:
Icecast.org
Liquidsoap

Please make a donation to help us keep growing!